createdAt,value
2022-08-22T00:02:06.109Z,99617.79
2022-08-22T00:03:04.654Z,99624.79
2022-08-22T00:03:06.480Z,99610.89
2022-08-22T00:07:03.645Z,99618.29
2022-08-22T00:11:18.823Z,99616.98
2022-08-22T00:15:52.721Z,99615.66
2022-08-22T00:20:28.258Z,99618.18
2022-08-22T00:24:54.800Z,99619.61
2022-08-22T00:29:15.199Z,99623.83
2022-08-22T00:33:32.493Z,99622.12
2022-08-22T00:38:11.389Z,99620.63
2022-08-22T00:42:46.115Z,99624.73
2022-08-22T00:46:58.159Z,99626.24
2022-08-22T00:51:23.798Z,99632.05
2022-08-22T00:56:11.452Z,99634.23
2022-08-22T01:00:28.841Z,99637.38
2022-08-22T01:04:47.523Z,99643.04
2022-08-22T01:09:09.040Z,99642.05
2022-08-22T01:13:33.079Z,99640.05
2022-08-22T01:18:00.119Z,99639.36
2022-08-22T01:22:38.334Z,99635.19
2022-08-22T01:27:12.552Z,99640.41
2022-08-22T01:31:40.129Z,99636.88
2022-08-22T01:36:08.891Z,99630.22
2022-08-22T01:40:53.293Z,99631.13
2022-08-22T01:45:33.404Z,99633.49
2022-08-22T01:50:02.411Z,99633.60
2022-08-22T01:54:50.619Z,99636.64
2022-08-22T01:59:14.661Z,99640.09
2022-08-22T02:03:32.419Z,99637.23
2022-08-22T02:08:01.439Z,99638.73
2022-08-22T02:12:22.271Z,99637.59
2022-08-22T02:16:34.934Z,99636.49
2022-08-22T02:21:17.151Z,99635.59
2022-08-22T02:25:53.064Z,99634.86
2022-08-22T02:30:08.087Z,99631.15
2022-08-22T02:34:30.878Z,99632.37
2022-08-22T02:39:02.635Z,99621.45
2022-08-22T02:43:30.066Z,99622.67
2022-08-22T02:47:41.994Z,99634.81
2022-08-22T02:51:50.525Z,99634.09
2022-08-22T02:56:14.470Z,99641.27
2022-08-22T03:00:30.921Z,99644.58
2022-08-22T03:04:40.393Z,99647.26
2022-08-22T03:09:09.986Z,99648.60
2022-08-22T03:13:37.426Z,99650.41
2022-08-22T03:18:25.537Z,99650.04
2022-08-22T03:22:43.649Z,99652.77
2022-08-22T03:27:14.827Z,99650.36
2022-08-22T03:31:36.753Z,99648.34
2022-08-22T03:35:50.270Z,99656.23
2022-08-22T03:40:17.331Z,99661.02
2022-08-22T03:44:35.890Z,99668.91
2022-08-22T03:49:15.294Z,99668.41
2022-08-22T03:53:29.390Z,99672.83
2022-08-22T03:57:59.637Z,99666.33
2022-08-22T04:02:35.825Z,99668.34
2022-08-22T04:07:01.785Z,99667.33
2022-08-22T04:11:28.509Z,99675.41
2022-08-22T04:15:34.220Z,99671.09
2022-08-22T04:19:42.365Z,99677.79
2022-08-22T04:23:44.418Z,99680.29
2022-08-22T04:28:10.600Z,99686.27
2022-08-22T04:32:40.197Z,99691.02
2022-08-22T04:37:29.301Z,99695.95
2022-08-22T04:41:50.689Z,99701.84
2022-08-22T04:46:23.646Z,99704.45
2022-08-22T04:50:52.660Z,99704.37
2022-08-22T04:55:45.359Z,99703.19
2022-08-22T04:59:49.661Z,99705.00
2022-08-22T05:04:15.910Z,99709.98
2022-08-22T05:08:57.393Z,99710.77
2022-08-22T05:13:45.424Z,99717.13
2022-08-22T05:18:31.811Z,99712.84
2022-08-22T05:23:22.470Z,99717.66
2022-08-22T05:27:33.097Z,99727.67
2022-08-22T05:31:59.239Z,99727.46
2022-08-22T05:36:10.564Z,99732.46
2022-08-22T05:40:31.007Z,99730.58
2022-08-22T05:44:47.258Z,99731.73
2022-08-22T05:49:09.026Z,99739.09
2022-08-22T05:54:15.256Z,99738.23
2022-08-22T05:58:39.755Z,99744.45
2022-08-22T06:03:01.098Z,99745.44
2022-08-22T06:07:43.949Z,99745.70
2022-08-22T06:12:22.791Z,99746.14
2022-08-22T06:17:10.129Z,99741.02
2022-08-22T06:21:39.434Z,99742.88
2022-08-22T06:25:50.662Z,99741.52
2022-08-22T06:30:17.501Z,99747.80
2022-08-22T06:34:37.981Z,99745.14
2022-08-22T06:38:58.911Z,99747.83
2022-08-22T06:43:15.138Z,99749.88
2022-08-22T06:47:24.074Z,99760.41
2022-08-22T06:51:48.620Z,99764.30
2022-08-22T06:55:55.420Z,99761.89
2022-08-22T07:00:05.640Z,99768.77
2022-08-22T07:04:10.354Z,99763.35
2022-08-22T07:08:42.206Z,99764.94
2022-08-22T07:12:48.990Z,99771.91
2022-08-22T07:17:12.045Z,99775.73
2022-08-22T07:22:18.036Z,99776.03
2022-08-22T07:27:28.982Z,99779.83
2022-08-22T07:31:54.604Z,99787.33
2022-08-22T07:37:09.613Z,99795.73
2022-08-22T07:41:59.410Z,99793.81
2022-08-22T07:46:42.774Z,99797.85
2022-08-22T07:51:14.012Z,99797.83
2022-08-22T07:55:49.663Z,99795.29
2022-08-22T08:00:11.770Z,99797.90
2022-08-22T08:04:45.654Z,99803.48
2022-08-22T08:09:23.673Z,99802.41
2022-08-22T08:13:43.556Z,99803.87
2022-08-22T08:18:00.977Z,99806.93
2022-08-22T08:22:43.222Z,99805.23
2022-08-22T08:27:28.014Z,99807.77
2022-08-22T08:31:56.753Z,99808.86
2022-08-22T08:36:52.900Z,99808.82
2022-08-22T08:47:12.240Z,99807.90
2022-08-22T08:51:50.681Z,99811.86
2022-08-22T08:56:42.787Z,99806.91
2022-08-22T09:01:31.387Z,99806.63
2022-08-22T09:06:32.899Z,99805.92
2022-08-22T09:11:28.333Z,99799.77
2022-08-22T09:16:39.133Z,99800.39
2022-08-22T09:21:38.776Z,99805.79
2022-08-22T09:26:15.923Z,99802.87
2022-08-22T09:35:28.116Z,99804.44
2022-08-22T09:55:59.394Z,99796.00
2022-08-22T10:06:53.806Z,99792.34
2022-08-22T10:45:24.025Z,99788.89
2022-08-22T10:56:12.465Z,99788.36
